Flight Track Log - Related Links

Times and Time Zones

All times are in EDT time to prevent confusion due to time zone crossing. See the SKW5550 flight status page for this flight to view local times or setup timezone preferences in your user account.

Time Position Orientation Groundspeed Altitude Reporting Facility
EDT Latitude Longitude Course Direction KTS MPH feet Rate Location/Type
Thu 09:28:25 AM 44.5406 -108.9881 157° South 156 180 6,300  Level Salt Lake Center
Thu 09:29:26 AM 44.5217 -108.9150 110° East 220 253 8,100 1,610 Climbing Salt Lake Center
Thu 09:30:00 AM 44.0346 -108.6203 159° South  Level FlightAware Approximate
Thu 09:30:28 AM 44.4631 -108.8706 152° Southeast 234 269 9,600  Level Salt Lake Center
Thu 09:31:00 AM 43.9365 -108.5657 157° South  Level FlightAware Approximate
Thu 09:31:29 AM 44.3919 -108.8414 164° South 252 290 12,000  Level Salt Lake Center
Thu 09:32:00 AM 43.8389 -108.5087 157° South  Level FlightAware Approximate
Thu 09:32:30 AM 44.3219 -108.7956 155° Southeast 263 303 13,400  Level Salt Lake Center
Thu 09:33:00 AM 43.7414 -108.4521 157° South  Level FlightAware Approximate
Thu 09:33:32 AM 44.2422 -108.7475 157° South 283 326 15,000  Level Salt Lake Center
Thu 09:34:32 AM 44.1406 -108.6850 156° South 317 365 17,300 1,672 Climbing Salt Lake Center
Thu 09:35:34 AM 44.0583 -108.6397 158° South 321 369 18,400 1,122 Climbing Salt Lake Center
Thu 09:36:35 AM 43.9739 -108.5922 158° South 325 374 19,600 1,082 Climbing Salt Lake Center
Thu 09:37:36 AM 43.8808 -108.5869 178° South 333 383 20,600 1,131 Climbing Salt Lake Center
Thu 09:38:37 AM 43.7867 -108.5867 180° South 340 391 21,900 1,122 Climbing Salt Lake Center
Thu 09:39:39 AM 43.6917 -108.5844 179° South 342 394 22,900 976 Climbing Salt Lake Center
Thu 09:40:40 AM 43.5931 -108.5833 180° South 352 405 23,900 1,082 Climbing Salt Lake Center
Thu 09:41:41 AM 43.4953 -108.5808 179° South 354 407 25,100 878 Climbing Salt Lake Center
Thu 09:42:43 AM 43.3989 -108.5792 179° South 348 400 25,700 780 Climbing Salt Lake Center
Thu 09:43:44 AM 43.2789 -108.5761 179° South 358 412 26,700 836 Climbing Salt Lake Center
Thu 09:44:45 AM 43.1792 -108.5742 179° South 359 413 27,400 634 Climbing Salt Lake Center
Thu 09:45:47 AM 43.0789 -108.5719 179° South 362 417 28,000 585 Climbing Salt Lake Center
Thu 09:46:48 AM 42.9972 -108.4769 140° Southeast 392 451 28,600 492 Climbing Salt Lake Center
Thu 09:47:49 AM 42.9281 -108.3714 132° Southeast 391 450 29,000 439 Climbing Salt Lake Center
Thu 09:48:51 AM 42.8444 -108.2461 132° Southeast 395 455 29,500 488 Climbing Salt Lake Center
Thu 09:49:52 AM 42.7719 -108.1369 132° Southeast 402 463 30,000 393 Climbing Salt Lake Center
Thu 09:50:53 AM 42.6864 -108.0097 132° Southeast 406 467 30,300 341 Climbing Salt Lake Center
Thu 09:51:55 AM 42.6069 -107.9081 137° Southeast 409 471 30,700 341 Climbing Salt Lake Center
Thu 09:52:56 AM 42.5267 -107.8050 137° Southeast 412 474 31,000 146 Climbing Salt Lake Center
Thu 09:53:58 AM 42.4336 -107.6875 137° Southeast 410 472 31,000  Level Salt Lake Center
Thu 09:54:59 AM 42.3542 -107.5861 137° Southeast 410 472 31,000  Level Salt Lake Center
Thu 09:55:31 AM 42.3139 -107.5344 137° Southeast 412 474 31,000  Level Denver Center
Thu 09:56:33 AM 42.2192 -107.4139 137° Southeast 418 481 31,000  Level Denver Center
Thu 09:57:46 AM 42.1386 -107.3114 137° Southeast 416 479 31,000  Level Denver Center
Thu 09:58:48 AM 42.0289 -107.1747 137° Southeast 418 481 31,000  Level Denver Center
Thu 09:59:50 AM 41.9461 -107.0714 137° Southeast 423 487 31,000  Level Denver Center
Thu 10:00:52 AM 41.8503 -106.9519 137° Southeast 421 484 31,000  Level Denver Center
Thu 10:01:53 AM 41.7833 -106.8664 136° Southeast 418 481 31,000  Level Denver Center
Thu 10:02:55 AM 41.6733 -106.7317 138° Southeast 419 482 31,000  Level Denver Center
Thu 10:04:09 AM 41.5892 -106.6308 138° Southeast 423 487 31,000  Level Denver Center
Thu 10:05:11 AM 41.4842 -106.5003 137° Southeast 419 482 31,000  Level Denver Center
Thu 10:06:12 AM 41.4150 -106.4167 138° Southeast 420 483 31,000  Level Denver Center
Thu 10:07:14 AM 41.3044 -106.2819 138° Southeast 422 486 31,000  Level Denver Center
Thu 10:08:16 AM 41.2203 -106.1789 137° Southeast 415 478 31,000  Level Denver Center
Thu 10:09:18 AM 41.1286 -106.0697 138° Southeast 413 475 31,000  Level Denver Center
Thu 10:10:19 AM 41.0456 -105.9683 137° Southeast 422 486 31,000 -878 Level Denver Center
Thu 10:11:21 AM 40.9614 -105.8661 137° Southeast 418 481 29,200 -1,500 Descending Denver Center
Thu 10:12:23 AM 40.8956 -105.7883 138° Southeast 405 466 27,900 -1,790 Descending Denver Center
Thu 10:13:25 AM 40.7875 -105.6578 138° Southeast 379 436 25,500 -1,984 Descending Denver Center
Thu 10:14:27 AM 40.7125 -105.5686 138° Southeast 366 421 23,800 -1,548 Descending Denver Center
Thu 10:15:29 AM 40.6386 -105.4814 138° Southeast 359 413 22,300 -1,452 Descending Denver Center
Thu 10:16:31 AM 40.5758 -105.3833 130° Southeast 357 411 20,800 -1,452 Descending Denver Center
Thu 10:17:33 AM 40.5172 -105.2811 127° Southeast 352 405 19,300 -1,500 Descending Denver Center
Thu 10:18:35 AM 40.4678 -105.1489 116° Southeast 372 428 17,700 -1,597 Descending Denver Center
Thu 10:19:37 AM 40.4286 -105.0150 111° Southeast 366 421 16,000 -1,500 Descending Denver Center
Thu 10:20:51 AM 40.3578 -104.8992 129° Southeast 322 371 14,300 -1,588 Descending Denver Center
Thu 10:21:53 AM 40.2903 -104.8253 140° Southeast 314 361 12,400 -1,790 Descending Denver Center
Thu 10:22:55 AM 40.2208 -104.7628 145° Southeast 301 346 10,600 -1,694 Descending Denver Center
Thu 10:23:57 AM 40.1411 -104.7125 154° Southeast 293 337 8,900 -1,113 Descending Denver Center
Thu 10:24:59 AM 40.0731 -104.6856 163° South 249 287 8,300 -726 Descending Denver Center
Thu 10:26:01 AM 40.0031 -104.6858 180° South 234 269 7,400 -871 Descending Denver Center
Thu 10:27:03 AM 39.9492 -104.6861 180° South 179 206 6,500 -864 Descending Denver Center
Thu 10:28:06 AM 39.9056 -104.6864 180° South 159 183 5,600 -857 Descending Denver Center

Login

Don't have an account? Register now (free) for customized features, flight alerts, and more!